Time;durP1;ratioP1;P1;durP2;ratioP2;P2;SDS_P1;SDS_P2;PMS_P1;PMS_P2;Temp;Humidity;BMP_temperature;BMP_pressure;BME280_temperature;BME280_humidity;BME280_pressure;Samples;Min_cycle;Max_cycle;Signal;HPM_P1;HPM_P2
2022/02/17 00:00:21;;;;;;;2.13;1.53;;;7.60;99.90;;;;;;4404686;28;655408;-77
2022/02/17 00:03:10;;;;;;;5.87;2.00;;;7.60;99.90;;;;;;4425760;28;656966;-80
2022/02/17 00:05:58;;;;;;;4.07;1.47;;;7.50;99.90;;;;;;4390600;28;656596;-79
2022/02/17 00:08:46;;;;;;;1.87;1.30;;;7.40;99.90;;;;;;4400535;28;656370;-78
2022/02/17 00:11:34;;;;;;;2.57;1.60;;;7.40;99.90;;;;;;4427868;28;655633;-79
2022/02/17 00:14:22;;;;;;;1.57;1.20;;;7.40;99.90;;;;;;4411670;28;655504;-78
2022/02/17 00:17:10;;;;;;;2.67;1.50;;;7.40;99.90;;;;;;4421622;28;655578;-78
2022/02/17 00:19:59;;;;;;;2.20;1.43;;;7.40;99.90;;;;;;4420973;28;656526;-79
2022/02/17 00:22:47;;;;;;;2.60;1.40;;;7.40;99.90;;;;;;4410669;28;656256;-80
2022/02/17 00:25:34;;;;;;;1.13;0.80;;;7.30;99.90;;;;;;4430248;28;655460;-79
2022/02/17 00:28:22;;;;;;;2.27;1.43;;;7.30;99.90;;;;;;4407503;28;655289;-79
2022/02/17 00:31:09;;;;;;;2.67;1.60;;;7.30;99.90;;;;;;4420061;28;655228;-78
2022/02/17 00:33:57;;;;;;;3.07;1.57;;;7.30;99.90;;;;;;4400964;28;655408;-79
2022/02/17 00:36:46;;;;;;;3.40;1.53;;;7.20;99.90;;;;;;4419502;28;655740;-78
2022/02/17 00:39:34;;;;;;;3.00;1.50;;;7.20;99.90;;;;;;4402978;28;656312;-79
2022/02/17 00:42:21;;;;;;;2.80;1.48;;;7.30;99.90;;;;;;4398249;28;655596;-79
2022/02/17 00:45:10;;;;;;;1.90;1.20;;;7.30;99.90;;;;;;4417732;28;656493;-78
2022/02/17 00:47:57;;;;;;;1.30;1.07;;;7.20;99.90;;;;;;4397242;28;656544;-78
2022/02/17 00:50:44;;;;;;;2.17;1.30;;;7.30;99.90;;;;;;4423341;28;655762;-78
2022/02/17 00:53:33;;;;;;;3.30;1.40;;;7.30;99.90;;;;;;4397776;28;656022;-79
2022/02/17 00:56:21;;;;;;;2.30;1.33;;;7.40;99.90;;;;;;4401844;28;655386;-76
2022/02/17 00:59:08;;;;;;;1.87;1.47;;;7.40;99.90;;;;;;4418058;28;656415;-80
2022/02/17 01:01:56;;;;;;;1.57;1.20;;;7.50;99.90;;;;;;4400285;28;655605;-79
2022/02/17 01:04:43;;;;;;;2.20;1.50;;;7.50;99.90;;;;;;4425176;28;656350;-80
2022/02/17 01:07:31;;;;;;;2.40;1.53;;;7.50;99.90;;;;;;4396385;28;655650;-78
2022/02/17 01:10:20;;;;;;;1.92;1.02;;;7.60;99.90;;;;;;4430960;28;655811;-80
2022/02/17 01:13:07;;;;;;;2.10;1.23;;;7.70;99.90;;;;;;4409416;28;657473;-75
2022/02/17 01:15:55;;;;;;;1.90;1.33;;;7.70;99.90;;;;;;4427990;28;655254;-75
2022/02/17 01:18:42;;;;;;;2.07;1.40;;;7.80;99.90;;;;;;4392268;28;656733;-79
2022/02/17 01:21:30;;;;;;;2.10;1.10;;;7.80;99.90;;;;;;4420966;28;656214;-76
2022/02/17 01:24:17;;;;;;;2.37;1.47;;;7.70;99.90;;;;;;4405707;28;656143;-79
2022/02/17 01:27:06;;;;;;;3.05;1.30;;;7.70;99.90;;;;;;4428383;28;655768;-80
2022/02/17 01:29:54;;;;;;;3.50;1.50;;;7.80;99.90;;;;;;4404997;28;656383;-79
2022/02/17 01:32:41;;;;;;;2.80;1.57;;;7.90;99.90;;;;;;4387797;28;656205;-80
2022/02/17 01:35:29;;;;;;;5.10;1.50;;;7.90;99.90;;;;;;4419851;28;655940;-80
2022/02/17 01:38:16;;;;;;;1.93;1.47;;;8.00;99.90;;;;;;4401409;28;656183;-78
2022/02/17 01:41:05;;;;;;;3.97;1.50;;;8.10;99.90;;;;;;4417306;28;656092;-79
2022/02/17 01:43:54;;;;;;;2.97;1.50;;;8.10;99.90;;;;;;4390413;28;656774;-79
2022/02/17 01:46:42;;;;;;;1.13;1.03;;;8.30;99.90;;;;;;4401654;28;655753;-74
2022/02/17 01:49:30;;;;;;;3.13;1.37;;;8.30;99.90;;;;;;4414960;28;655910;-76
2022/02/17 01:52:18;;;;;;;2.43;1.73;;;8.20;99.90;;;;;;4392242;28;657208;-75
2022/02/17 01:55:06;;;;;;;3.37;1.80;;;8.10;99.90;;;;;;4402593;28;655456;-78
2022/02/17 01:57:54;;;;;;;1.70;1.27;;;8.00;99.90;;;;;;4408660;28;655815;-78
2022/02/17 02:00:44;;;;;;;2.27;1.93;;;7.90;99.90;;;;;;4391888;28;656054;-77
2022/02/17 02:03:31;;;;;;;2.93;1.77;;;7.80;99.90;;;;;;4386349;28;655683;-79
2022/02/17 02:06:19;;;;;;;2.67;1.73;;;7.90;99.90;;;;;;4410314;28;655261;-79
2022/02/17 02:09:06;;;;;;;2.53;1.60;;;7.90;99.90;;;;;;4396690;28;655655;-78
2022/02/17 02:11:54;;;;;;;2.00;1.23;;;7.90;99.90;;;;;;4413857;28;655688;-77
2022/02/17 02:14:52;;;;;;;4.13;1.80;;;8.00;99.90;;;;;;4393109;28;655566;-77
2022/02/17 02:17:41;;;;;;;2.30;1.40;;;8.00;99.90;;;;;;4396686;28;655606;-75
2022/02/17 02:20:30;;;;;;;2.77;1.57;;;8.10;99.90;;;;;;4388473;28;656621;-79
2022/02/17 02:23:17;;;;;;;2.83;1.40;;;8.10;99.90;;;;;;4395639;28;655664;-78
2022/02/17 02:26:06;;;;;;;4.90;1.70;;;8.10;99.90;;;;;;4410150;28;656440;-77
2022/02/17 02:28:53;;;;;;;3.50;1.80;;;8.30;99.90;;;;;;4411445;28;655913;-79
2022/02/17 02:31:41;;;;;;;2.00;1.70;;;8.20;99.90;;;;;;4397672;28;655554;-77
2022/02/17 02:34:28;;;;;;;3.07;1.63;;;8.10;99.90;;;;;;4413792;28;656957;-79
2022/02/17 02:37:17;;;;;;;2.00;1.15;;;8.10;99.90;;;;;;4392128;28;655426;-78
2022/02/17 02:40:06;;;;;;;2.40;1.47;;;8.10;99.90;;;;;;4423718;28;655345;-76
2022/02/17 02:42:53;;;;;;;2.40;1.63;;;8.10;99.90;;;;;;4389582;28;655818;-78
2022/02/17 02:45:43;;;;;;;2.70;1.80;;;8.10;99.90;;;;;;4392079;28;655674;-74
2022/02/17 02:48:30;;;;;;;2.47;1.63;;;8.10;99.90;;;;;;4396690;28;655891;-77
2022/02/17 02:51:18;;;;;;;2.27;1.57;;;8.10;99.90;;;;;;4414180;28;656957;-78
2022/02/17 02:54:07;;;;;;;3.20;1.57;;;8.00;99.90;;;;;;4397523;28;655198;-75
2022/02/17 02:56:55;;;;;;;4.03;2.15;;;7.90;99.90;;;;;;4411238;28;656032;-78
2022/02/17 02:59:45;;;;;;;3.97;2.00;;;7.80;99.90;;;;;;4391486;28;656264;-78
2022/02/17 03:02:32;;;;;;;3.07;2.20;;;7.70;99.90;;;;;;4389920;28;656780;-76
2022/02/17 03:05:20;;;;;;;3.28;1.85;;;7.60;99.90;;;;;;4412221;28;655636;-78
2022/02/17 03:08:07;;;;;;;3.90;2.50;;;7.50;99.90;;;;;;4395427;28;655801;-78
2022/02/17 03:10:56;;;;;;;2.80;2.00;;;7.40;99.90;;;;;;4412209;28;655101;-76
2022/02/17 03:13:43;;;;;;;3.50;2.17;;;7.30;99.90;;;;;;4388007;28;656144;-77
2022/02/17 03:16:31;;;;;;;3.00;2.43;;;7.30;99.90;;;;;;4396478;28;655435;-77
2022/02/17 03:19:18;;;;;;;3.47;2.37;;;7.20;99.90;;;;;;4425274;28;656762;-79
2022/02/17 03:22:06;;;;;;;3.33;1.93;;;7.10;99.90;;;;;;4407660;28;656040;-78
2022/02/17 03:24:54;;;;;;;3.60;2.57;;;7.00;99.90;;;;;;4416835;28;656094;-77
2022/02/17 03:27:42;;;;;;;3.80;2.07;;;7.00;99.90;;;;;;4394790;28;655626;-76
2022/02/17 03:30:30;;;;;;;4.80;2.50;;;7.00;99.90;;;;;;4408917;28;655732;-76
2022/02/17 03:33:18;;;;;;;2.93;2.03;;;7.00;99.90;;;;;;4420504;28;656724;-78
2022/02/17 03:36:06;;;;;;;4.77;2.70;;;6.90;99.90;;;;;;4398820;28;655628;-76
2022/02/17 03:38:56;;;;;;;3.57;2.50;;;6.90;99.90;;;;;;4413468;28;656665;-77
2022/02/17 03:41:45;;;;;;;3.70;2.47;;;7.00;99.90;;;;;;4401613;28;655831;-78
2022/02/17 03:44:33;;;;;;;3.37;2.60;;;7.00;99.90;;;;;;4392518;28;656370;-79
2022/02/17 03:47:21;;;;;;;3.97;2.50;;;7.00;99.90;;;;;;4399791;28;655618;-77
2022/02/17 03:50:10;;;;;;;3.60;2.47;;;6.90;99.90;;;;;;4417982;28;656255;-77
2022/02/17 03:52:58;;;;;;;4.35;2.50;;;6.90;99.90;;;;;;4396119;28;655911;-78
2022/02/17 03:55:45;;;;;;;3.60;2.53;;;6.90;99.90;;;;;;4407963;28;655345;-76
2022/02/17 04:01:45;;;;;;;3.37;2.10;;;7.10;99.90;;;;;;4393670;28;656201;-78
2022/02/17 04:04:32;;;;;;;5.10;1.97;;;7.10;99.90;;;;;;4392711;28;656435;-78
2022/02/17 04:07:20;;;;;;;2.27;1.63;;;7.20;99.90;;;;;;4419767;28;655396;-78
2022/02/17 04:10:08;;;;;;;2.73;1.73;;;7.20;99.90;;;;;;4404662;28;656562;-78
2022/02/17 04:12:56;;;;;;;2.75;1.40;;;7.40;99.90;;;;;;4399178;28;655919;-76
2022/02/17 04:15:43;;;;;;;3.17;1.50;;;7.50;99.90;;;;;;4417266;28;656215;-78
2022/02/17 04:18:32;;;;;;;1.63;1.00;;;7.60;99.90;;;;;;4398032;28;655464;-74
2022/02/17 04:21:21;;;;;;;1.50;1.30;;;7.80;99.90;;;;;;4419445;28;655933;-80
2022/02/17 04:24:08;;;;;;;1.97;1.17;;;7.90;99.90;;;;;;4403384;28;656885;-77
2022/02/17 04:26:56;;;;;;;2.30;1.60;;;7.90;99.90;;;;;;4393239;28;655914;-77
2022/02/17 04:29:44;;;;;;;4.32;1.60;;;7.90;99.90;;;;;;4414644;28;656552;-75
2022/02/17 04:32:32;;;;;;;1.37;1.00;;;7.90;99.90;;;;;;4391785;28;655889;-75
2022/02/17 04:35:21;;;;;;;1.93;1.30;;;8.00;99.90;;;;;;4416418;28;655122;-77
2022/02/17 04:38:08;;;;;;;2.67;1.33;;;8.10;99.90;;;;;;4382965;28;655694;-77
2022/02/17 04:44:01;;;;;;;1.47;1.07;;;8.40;99.90;;;;;;4365790;28;656295;-74
2022/02/17 04:46:49;;;;;;;2.20;1.20;;;8.40;99.90;;;;;;4409932;28;656243;-77
2022/02/17 04:49:37;;;;;;;3.17;1.20;;;8.50;99.90;;;;;;4395739;28;655900;-79
2022/02/17 04:52:26;;;;;;;4.90;1.23;;;8.60;99.90;;;;;;4417587;28;655539;-79
2022/02/17 04:55:13;;;;;;;1.80;1.10;;;8.60;99.90;;;;;;4397882;28;655342;-79
2022/02/17 04:58:01;;;;;;;1.87;0.93;;;8.70;99.90;;;;;;4397327;28;655629;-77
2022/02/17 05:00:48;;;;;;;1.70;0.67;;;8.70;99.90;;;;;;4418414;28;656486;-79
2022/02/17 05:03:36;;;;;;;1.93;1.10;;;8.80;99.90;;;;;;4396428;28;655505;-78
2022/02/17 05:06:23;;;;;;;1.07;0.80;;;8.80;99.90;;;;;;4416891;28;656919;-79
2022/02/17 05:09:12;;;;;;;1.03;0.33;;;8.90;99.90;;;;;;4396200;28;655908;-75
2022/02/17 05:12:00;;;;;;;0.40;0.40;;;8.90;99.90;;;;;;4421041;28;656238;-77
2022/02/17 05:14:48;;;;;;;1.00;0.40;;;9.00;99.90;;;;;;4391233;28;656580;-74
2022/02/17 05:17:36;;;;;;;0.77;0.43;;;9.10;99.90;;;;;;4407221;28;655817;-76
2022/02/17 05:20:23;;;;;;;0.40;0.40;;;9.10;99.90;;;;;;4417475;28;655592;-78
2022/02/17 05:23:12;;;;;;;1.30;0.63;;;9.20;99.90;;;;;;4397883;28;655760;-74
2022/02/17 05:26:01;;;;;;;0.50;0.50;;;9.30;99.90;;;;;;4419090;28;655699;-79
2022/02/17 05:28:48;;;;;;;1.50;0.60;;;9.30;99.90;;;;;;4395273;28;656054;-79
2022/02/17 05:31:36;;;;;;;1.53;0.90;;;9.40;99.90;;;;;;4395778;28;655380;-78
2022/02/17 05:34:23;;;;;;;0.83;0.60;;;9.40;99.90;;;;;;4413479;28;656432;-78
2022/02/17 05:37:11;;;;;;;1.20;0.63;;;9.50;99.90;;;;;;4393050;28;655658;-79
2022/02/17 05:39:59;;;;;;;1.53;0.80;;;9.50;99.90;;;;;;4421739;28;656388;-76
2022/02/17 05:42:47;;;;;;;1.53;0.60;;;9.50;99.90;;;;;;4398536;28;655421;-77
2022/02/17 05:45:36;;;;;;;1.63;0.83;;;9.50;99.90;;;;;;4413792;28;656424;-74
2022/02/17 05:48:24;;;;;;;1.50;0.70;;;9.50;99.90;;;;;;4416638;28;655625;-79
2022/02/17 05:51:11;;;;;;;0.77;0.63;;;9.50;99.90;;;;;;4397768;28;655222;-74
2022/02/17 05:53:59;;;;;;;2.22;0.80;;;9.40;99.90;;;;;;4416145;28;656007;-78
2022/02/17 05:56:46;;;;;;;1.47;0.70;;;9.40;99.90;;;;;;4397732;28;655734;-78
2022/02/17 05:59:35;;;;;;;1.53;0.80;;;9.40;99.90;;;;;;4411169;28;656137;-77
2022/02/17 06:02:23;;;;;;;3.33;1.00;;;9.40;99.90;;;;;;4394721;28;656669;-78
2022/02/17 06:05:10;;;;;;;1.10;0.80;;;9.30;99.90;;;;;;4406941;28;656290;-77
2022/02/17 06:07:58;;;;;;;2.13;0.90;;;9.40;99.90;;;;;;4418660;28;657120;-79
2022/02/17 06:10:46;;;;;;;1.25;0.70;;;9.50;99.90;;;;;;4397078;28;655899;-78
2022/02/17 06:13:48;;;;;;;1.13;0.60;;;9.50;99.90;;;;;;4416897;28;656044;-79
2022/02/17 06:16:37;;;;;;;1.70;1.00;;;9.50;99.90;;;;;;4365670;28;655537;-79
2022/02/17 06:19:26;;;;;;;1.50;0.83;;;9.50;99.90;;;;;;4408412;28;655670;-74
2022/02/17 06:22:13;;;;;;;0.60;0.53;;;9.60;99.90;;;;;;4408707;28;655700;-76
2022/02/17 06:25:00;;;;;;;1.50;0.90;;;9.60;99.90;;;;;;4391443;28;655640;-78
2022/02/17 06:27:48;;;;;;;1.40;0.93;;;9.60;99.90;;;;;;4405120;28;657367;-78
2022/02/17 06:30:36;;;;;;;1.20;0.80;;;9.70;99.90;;;;;;4390693;28;655606;-75
2022/02/17 06:33:25;;;;;;;1.67;0.97;;;9.60;99.90;;;;;;4412936;28;656424;-78
2022/02/17 06:36:17;;;;;;;1.50;0.80;;;9.60;99.90;;;;;;4389166;28;656296;-77
2022/02/17 06:39:04;;;;;;;1.53;1.00;;;9.60;99.90;;;;;;4387617;28;655957;-76
2022/02/17 06:41:52;;;;;;;1.90;0.80;;;9.60;99.90;;;;;;4391902;28;655900;-77
2022/02/17 06:44:39;;;;;;;1.37;0.90;;;9.50;99.90;;;;;;4405385;28;656367;-77
2022/02/17 06:47:27;;;;;;;1.77;0.97;;;9.50;99.90;;;;;;4394624;28;655729;-74
2022/02/17 06:50:17;;;;;;;1.80;0.87;;;9.40;99.90;;;;;;4401330;28;656683;-78
2022/02/17 06:53:04;;;;;;;4.53;0.90;;;9.40;99.90;;;;;;4387400;28;655925;-75
2022/02/17 06:55:52;;;;;;;1.63;1.10;;;9.50;99.90;;;;;;4385952;28;655549;-75
2022/02/17 06:58:39;;;;;;;3.70;1.33;;;9.40;99.90;;;;;;4397453;28;655394;-75
2022/02/17 07:01:27;;;;;;;3.13;1.33;;;9.40;99.90;;;;;;4381203;28;655574;-78
2022/02/17 07:04:15;;;;;;;4.10;1.43;;;9.40;99.90;;;;;;4403120;28;655781;-78
2022/02/17 07:07:04;;;;;;;2.93;1.23;;;9.30;99.90;;;;;;4374619;28;657183;-77
2022/02/17 07:09:51;;;;;;;2.67;1.30;;;9.20;99.90;;;;;;4380807;28;655583;-78
2022/02/17 07:12:43;;;;;;;2.90;1.50;;;9.10;99.90;;;;;;4402919;28;656579;-77
2022/02/17 07:15:34;;;;;;;2.38;1.20;;;9.10;99.90;;;;;;4389894;28;655022;-77
2022/02/17 07:18:22;;;;;;;2.13;0.90;;;9.10;99.90;;;;;;4390056;28;655753;-80
2022/02/17 07:21:11;;;;;;;3.07;1.20;;;9.10;99.90;;;;;;4404688;28;655655;-77
2022/02/17 07:24:00;;;;;;;3.23;1.00;;;9.20;99.90;;;;;;4380847;28;656865;-76
2022/02/17 07:26:47;;;;;;;2.47;1.17;;;9.30;99.90;;;;;;4379023;28;656760;-77
2022/02/17 07:29:36;;;;;;;2.13;1.07;;;9.50;99.90;;;;;;4404251;28;655218;-74
2022/02/17 07:32:24;;;;;;;1.50;1.00;;;9.60;99.90;;;;;;4408716;28;656931;-77
2022/02/17 07:35:11;;;;;;;3.00;1.40;;;9.70;99.90;;;;;;4381468;28;655554;-80
2022/02/17 07:37:59;;;;;;;3.30;0.80;;;9.70;99.90;;;;;;4405842;28;655454;-81
2022/02/17 07:41:36;;;;;;;1.73;0.80;;;8.90;99.90;;;;;;4384359;28;656262;-78
2022/02/17 07:44:26;;;;;;;5.13;0.60;;;7.70;99.90;;;;;;4379580;28;656109;-77
2022/02/17 07:47:40;;;;;;;6.43;0.77;;;6.30;99.90;;;;;;4381093;28;656418;-77
2022/02/17 07:50:39;;;;;;;3.63;1.10;;;5.30;99.90;;;;;;4380588;28;655579;-77
2022/02/17 07:53:27;;;;;;;1.83;0.83;;;4.60;99.90;;;;;;4381242;28;655483;-76
2022/02/17 07:56:14;;;;;;;5.20;1.13;;;4.20;99.90;;;;;;4400049;28;656382;-75
2022/02/17 07:59:02;;;;;;;3.07;1.13;;;3.90;99.90;;;;;;4386006;28;655624;-77
2022/02/17 08:01:51;;;;;;;4.07;1.50;;;3.70;99.90;;;;;;4401956;28;655679;-76
2022/02/17 08:04:38;;;;;;;2.87;1.30;;;3.60;99.90;;;;;;4385543;28;656088;-76
2022/02/17 08:07:27;;;;;;;2.97;1.33;;;3.60;99.90;;;;;;4389293;28;655546;-77
2022/02/17 08:10:15;;;;;;;2.97;1.40;;;3.60;99.90;;;;;;4401821;28;655902;-79
2022/02/17 08:13:02;;;;;;;5.83;1.33;;;3.70;99.90;;;;;;4385211;28;657094;-80
2022/02/17 08:15:52;;;;;;;3.10;1.17;;;3.70;99.90;;;;;;4408761;28;655451;-78
2022/02/17 08:18:41;;;;;;;3.05;1.15;;;3.80;99.90;;;;;;4407566;28;655165;-80
2022/02/17 08:21:29;;;;;;;3.87;1.23;;;3.80;44.60;;;;;;4377216;28;656023;-80
2022/02/17 08:24:17;;;;;;;2.63;1.00;;;3.80;99.90;;;;;;4386672;28;655507;-79
2022/02/17 08:27:06;;;;;;;1.80;1.10;;;3.80;99.90;;;;;;4414824;28;655294;-78
2022/02/17 08:29:53;;;;;;;1.87;0.77;;;3.80;99.90;;;;;;4412744;28;655985;-77
2022/02/17 08:32:41;;;;;;;1.47;0.67;;;3.80;99.90;;;;;;4390045;28;655407;-78
2022/02/17 08:35:30;;;;;;;1.53;0.80;;;3.70;99.90;;;;;;4414672;28;656013;-78
2022/02/17 08:38:18;;;;;;;2.47;1.30;;;3.80;99.90;;;;;;4381195;28;655886;-77
2022/02/17 08:41:06;;;;;;;1.43;0.80;;;3.90;99.90;;;;;;4397925;28;655573;-78
2022/02/17 08:43:54;;;;;;;3.23;1.40;;;4.00;99.90;;;;;;4413593;28;656421;-78
2022/02/17 08:46:41;;;;;;;4.57;1.50;;;4.20;99.90;;;;;;4386860;28;656141;-78
2022/02/17 08:49:29;;;;;;;5.90;1.77;;;4.20;99.90;;;;;;4399550;28;655925;-78
2022/02/17 08:52:19;;;;;;;3.03;1.67;;;4.30;99.90;;;;;;4393305;28;655659;-77
2022/02/17 08:55:07;;;;;;;2.33;1.43;;;4.40;99.90;;;;;;4382616;28;655341;-76
2022/02/17 08:57:55;;;;;;;4.40;2.20;;;4.60;99.90;;;;;;4406762;28;655726;-77
2022/02/17 09:00:43;;;;;;;4.97;2.43;;;4.70;99.90;;;;;;4384759;28;657235;-76
2022/02/17 09:03:30;;;;;;;6.47;2.60;;;4.90;99.90;;;;;;4397507;28;656219;-78
2022/02/17 09:06:18;;;;;;;5.40;2.50;;;5.00;99.90;;;;;;4399900;28;657078;-77
2022/02/17 09:09:07;;;;;;;5.57;2.43;;;5.00;99.90;;;;;;4381234;28;655305;-77
2022/02/17 09:11:55;;;;;;;3.92;2.38;;;5.00;99.90;;;;;;4410794;28;656126;-77
2022/02/17 09:14:42;;;;;;;7.77;3.13;;;5.00;99.90;;;;;;4383080;28;656584;-77
2022/02/17 09:17:31;;;;;;;8.70;3.83;;;5.10;99.90;;;;;;4402441;28;655527;-77
2022/02/17 09:20:18;;;;;;;7.67;2.90;;;5.20;99.90;;;;;;4407521;28;656570;-76
2022/02/17 09:23:06;;;;;;;8.43;3.73;;;5.20;99.90;;;;;;4385607;28;655472;-77
2022/02/17 09:25:55;;;;;;;13.90;5.40;;;5.20;99.90;;;;;;4409353;28;656242;-77
2022/02/17 09:28:43;;;;;;;11.23;4.53;;;5.20;99.90;;;;;;4388289;28;656937;-77
2022/02/17 09:31:31;;;;;;;12.53;5.10;;;5.30;99.90;;;;;;4383632;28;656170;-78
2022/02/17 09:34:19;;;;;;;8.37;3.60;;;5.30;99.90;;;;;;4407228;28;657136;-77
2022/02/17 09:37:06;;;;;;;8.03;2.90;;;5.30;99.90;;;;;;4387183;28;656131;-77
2022/02/17 09:39:55;;;;;;;5.47;3.33;;;5.30;99.90;;;;;;4406025;28;656024;-76
2022/02/17 09:42:44;;;;;;;9.43;4.27;;;5.30;99.90;;;;;;4377742;28;656448;-77
2022/02/17 09:45:33;;;;;;;10.73;4.77;;;5.40;99.90;;;;;;4382016;28;655555;-78
2022/02/17 09:48:21;;;;;;;10.17;5.90;;;5.30;99.90;;;;;;4397927;28;656654;-77
2022/02/17 09:51:08;;;;;;;12.33;5.13;;;5.40;99.90;;;;;;4402100;28;657087;-76
2022/02/17 09:53:56;;;;;;;12.70;6.37;;;5.40;99.90;;;;;;4387234;28;656389;-77
2022/02/17 09:56:44;;;;;;;11.77;6.20;;;5.50;99.90;;;;;;4410271;28;657845;-77
2022/02/17 09:59:33;;;;;;;11.77;5.03;;;5.50;99.90;;;;;;4378421;28;657182;-78
2022/02/17 10:02:24;;;;;;;9.20;5.00;;;5.60;99.90;;;;;;4382615;28;656669;-76
2022/02/17 10:05:12;;;;;;;11.40;4.93;;;5.80;99.90;;;;;;4390342;28;655795;-77
2022/02/17 10:08:00;;;;;;;13.23;5.63;;;5.80;99.90;;;;;;4399774;28;657234;-78
2022/02/17 10:10:47;;;;;;;13.53;4.90;;;5.90;99.90;;;;;;4378096;28;658245;-77
2022/02/17 10:13:36;;;;;;;8.57;4.20;;;6.00;99.90;;;;;;4403599;28;657647;-77
2022/02/17 10:16:25;;;;;;;12.07;4.53;;;6.00;99.90;;;;;;4409026;28;655922;-77
2022/02/17 10:19:13;;;;;;;14.27;5.20;;;6.10;99.90;;;;;;4392144;28;656863;-78
2022/02/17 10:22:02;;;;;;;14.23;5.30;;;6.20;99.90;;;;;;4390454;28;656862;-78
2022/02/17 10:24:51;;;;;;;15.00;5.90;;;6.40;99.90;;;;;;4402872;28;656203;-78
2022/02/17 10:27:40;;;;;;;10.97;3.47;;;6.70;99.90;;;;;;4383358;28;656839;-76
2022/02/17 10:30:28;;;;;;;10.00;4.77;;;6.80;99.90;;;;;;4382684;28;657350;-78
2022/02/17 10:33:18;;;;;;;10.53;4.70;;;6.90;99.90;;;;;;4388060;28;657004;-77
2022/02/17 10:36:06;;;;;;;10.73;4.35;;;7.30;99.90;;;;;;4380410;28;656434;-76
2022/02/17 10:38:56;;;;;;;12.55;4.40;;;7.40;99.90;;;;;;4401875;28;657476;-77
2022/02/17 10:41:48;;;;;;;11.00;4.27;;;7.40;99.90;;;;;;4375339;28;657224;-77
2022/02/17 10:44:36;;;;;;;15.13;5.97;;;7.50;99.90;;;;;;4372029;28;656240;-76
2022/02/17 10:47:25;;;;;;;12.37;5.60;;;7.80;99.90;;;;;;4401599;28;657551;-78
2022/02/17 10:50:18;;;;;;;9.93;4.20;;;8.00;99.90;;;;;;4382696;28;657519;-79
2022/02/17 10:53:16;;;;;;;10.17;4.73;;;7.90;99.90;;;;;;4375766;28;655720;-77
2022/02/17 10:56:05;;;;;;;10.33;4.40;;;8.20;99.90;;;;;;4378157;28;657300;-78
2022/02/17 10:58:53;;;;;;;10.13;5.00;;;8.60;99.90;;;;;;4376346;28;657664;-77
2022/02/17 11:01:41;;;;;;;18.20;4.63;;;9.20;99.90;;;;;;4387134;28;656407;-76
2022/02/17 11:04:29;;;;;;;10.20;3.53;;;9.80;99.90;;;;;;4404665;28;657828;-76
2022/02/17 11:07:37;;;;;;;8.67;3.30;;;9.90;99.90;;;;;;4387923;28;656538;-79
2022/02/17 11:10:26;;;;;;;11.43;4.20;;;10.10;99.90;;;;;;4375130;28;655528;-75
2022/02/17 11:13:17;;;;;;;10.03;4.03;;;10.00;99.90;;;;;;4371498;28;659246;-77
2022/02/17 11:16:07;;;;;;;7.83;2.80;;;9.90;99.90;;;;;;4396416;28;657991;-76
2022/02/17 11:18:54;;;;;;;12.17;3.90;;;9.80;99.90;;;;;;4402803;28;656533;-78
2022/02/17 11:21:43;;;;;;;7.27;2.43;;;9.60;99.90;;;;;;4382897;28;656590;-76
2022/02/17 11:24:45;;;;;;;6.47;2.30;;;9.50;99.90;;;;;;4402586;28;655987;-76
2022/02/17 11:27:33;;;;;;;7.13;2.03;;;9.40;96.80;;;;;;4375337;28;655796;-76
2022/02/17 11:30:24;;;;;;;3.47;1.60;;;9.50;97.30;;;;;;4389236;28;655696;-73
2022/02/17 11:33:27;;;;;;;4.27;1.47;;;9.40;93.20;;;;;;4386827;28;658209;-76
2022/02/17 11:36:33;;;;;;;3.43;1.70;;;9.30;93.10;;;;;;4376595;28;655244;-76
2022/02/17 11:39:21;;;;;;;6.63;1.75;;;9.30;93.30;;;;;;4361056;28;655331;-77
2022/02/17 11:42:10;;;;;;;3.70;1.63;;;9.20;93.60;;;;;;4403285;28;655979;-77
2022/02/17 11:45:09;;;;;;;3.43;1.33;;;9.10;93.70;;;;;;4380795;28;657139;-76
2022/02/17 11:48:01;;;;;;;5.18;2.00;;;9.00;90.60;;;;;;4382148;28;655289;-76
2022/02/17 11:50:50;;;;;;;7.00;2.37;;;9.00;96.40;;;;;;4379844;28;656116;-78
2022/02/17 11:53:38;;;;;;;9.37;3.30;;;8.90;99.90;;;;;;4376365;28;657317;-79
2022/02/17 11:56:36;;;;;;;5.90;2.17;;;8.90;99.90;;;;;;4393270;28;655694;-77
2022/02/17 11:59:26;;;;;;;6.17;1.87;;;8.80;99.90;;;;;;4382364;28;656475;-77
2022/02/17 12:02:14;;;;;;;6.47;2.10;;;8.80;99.90;;;;;;4374315;28;656509;-78
2022/02/17 12:05:14;;;;;;;6.30;2.47;;;8.90;99.90;;;;;;4387903;28;655828;-76
2022/02/17 12:08:24;;;;;;;5.33;2.07;;;9.00;99.90;;;;;;4388057;28;656075;-76
2022/02/17 12:11:29;;;;;;;7.60;2.70;;;9.10;99.90;;;;;;4384436;28;656058;-76
2022/02/17 12:14:20;;;;;;;8.70;2.87;;;9.50;99.20;;;;;;4357660;28;656310;-76
2022/02/17 12:17:09;;;;;;;6.47;2.20;;;9.70;97.90;;;;;;4384851;28;657683;-77
2022/02/17 12:20:10;;;;;;;7.30;2.50;;;9.70;96.50;;;;;;4384601;28;655863;-76
2022/02/17 12:22:59;;;;;;;7.50;2.70;;;9.80;96.00;;;;;;4384421;28;657288;-76
2022/02/17 12:25:47;;;;;;;7.73;2.33;;;9.80;96.00;;;;;;4385744;28;656360;-78
2022/02/17 12:28:35;;;;;;;4.33;2.10;;;10.30;94.20;;;;;;4403188;28;655304;-77
2022/02/17 12:31:38;;;;;;;5.57;1.73;;;10.40;90.70;;;;;;4382076;28;657945;-75
2022/02/17 12:34:27;;;;;;;5.67;2.50;;;10.30;87.00;;;;;;4369029;28;657709;-74
2022/02/17 12:37:17;;;;;;;4.67;1.90;;;10.20;86.60;;;;;;4397031;28;657260;-78
2022/02/17 12:40:05;;;;;;;4.30;1.63;;;10.00;82.00;;;;;;4379659;28;656453;-75
2022/02/17 12:42:53;;;;;;;3.03;1.20;;;10.00;80.50;;;;;;4377898;28;657790;-73
2022/02/17 12:45:45;;;;;;;4.80;1.27;;;9.90;74.40;;;;;;4382617;28;656676;-74
2022/02/17 12:48:34;;;;;;;2.40;1.10;;;9.90;68.50;;;;;;4381218;28;657163;-78
2022/02/17 12:51:30;;;;;;;11.37;0.90;;;9.90;65.10;;;;;;4386884;28;655499;-73
2022/02/17 12:54:17;;;;;;;3.97;0.83;;;9.70;56.60;;;;;;4351881;28;657104;-74
2022/02/17 12:57:05;;;;;;;2.33;1.00;;;9.60;55.10;;;;;;4401901;28;655975;-73
2022/02/17 12:59:56;;;;;;;3.77;0.70;;;9.60;54.30;;;;;;4378050;28;656676;-74
2022/02/17 13:02:44;;;;;;;4.85;0.70;;;9.50;54.10;;;;;;4378160;28;657131;-75
2022/02/17 13:06:17;;;;;;;4.50;0.60;;;9.40;54.50;;;;;;4386224;28;655872;-74
2022/02/17 13:08:59;;;;;;;2.07;0.70;;;9.30;53.30;;;;;;4382993;28;655494;-74
2022/02/17 13:11:48;;;;;;;2.83;1.00;;;9.50;53.00;;;;;;4381982;28;655525;-75
2022/02/17 13:14:42;;;;;;;3.07;1.10;;;9.50;53.50;;;;;;4383591;28;655989;-75
2022/02/17 13:17:34;;;;;;;2.80;1.10;;;9.40;54.10;;;;;;4380602;28;656546;-76
2022/02/17 13:20:26;;;;;;;1.53;0.87;;;9.20;54.60;;;;;;4365612;28;656272;-74
2022/02/17 13:23:20;;;;;;;4.03;1.00;;;10.80;52.00;;;;;;4384213;28;657911;-74
2022/02/17 13:26:27;;;;;;;5.03;1.00;;;12.10;49.60;;;;;;4384905;28;657163;-75
2022/02/17 13:29:15;;;;;;;2.83;1.00;;;12.80;47.40;;;;;;4381160;28;656429;-75
2022/02/17 13:32:12;;;;;;;2.40;1.10;;;12.40;46.90;;;;;;4385733;28;658899;-75
2022/02/17 13:35:03;;;;;;;3.67;1.17;;;13.40;45.10;;;;;;4374879;28;656422;-75
2022/02/17 13:37:51;;;;;;;5.00;1.50;;;12.80;45.60;;;;;;4361238;28;656762;-75
2022/02/17 13:40:46;;;;;;;4.60;1.10;;;12.10;47.20;;;;;;4405358;28;658097;-75
2022/02/17 13:43:46;;;;;;;3.70;0.97;;;11.50;48.70;;;;;;4367388;28;657074;-75
2022/02/17 13:46:48;;;;;;;3.53;1.10;;;10.70;50.20;;;;;;4385377;28;657233;-76
2022/02/17 13:49:36;;;;;;;5.73;1.27;;;10.30;51.00;;;;;;4364841;28;657443;-75
2022/02/17 13:52:28;;;;;;;2.80;0.80;;;11.20;51.00;;;;;;4407914;28;656771;-75
2022/02/17 13:55:16;;;;;;;2.30;0.90;;;11.10;49.80;;;;;;4366287;28;656896;-74
2022/02/17 13:58:04;;;;;;;1.80;0.80;;;10.60;50.40;;;;;;4407910;28;657283;-74
2022/02/17 14:00:53;;;;;;;2.63;0.73;;;10.10;50.90;;;;;;4389873;28;656947;-74
2022/02/17 14:03:45;;;;;;;4.80;0.90;;;9.80;53.30;;;;;;4381058;28;656584;-74
2022/02/17 14:06:32;;;;;;;4.00;1.30;;;9.70;52.70;;;;;;4377223;28;657064;-75
2022/02/17 14:09:20;;;;;;;4.83;1.27;;;9.80;52.50;;;;;;4404506;28;656016;-75
2022/02/17 14:12:08;;;;;;;4.83;1.30;;;10.50;50.60;;;;;;4381756;28;656941;-75
2022/02/17 14:14:59;;;;;;;4.47;1.20;;;10.20;50.40;;;;;;4369725;28;657339;-74
2022/02/17 14:17:48;;;;;;;2.42;1.05;;;10.00;51.50;;;;;;4386754;28;657244;-74
2022/02/17 14:20:36;;;;;;;5.33;0.80;;;9.70;53.10;;;;;;4385503;28;656905;-74
2022/02/17 14:23:24;;;;;;;3.60;1.00;;;9.60;53.00;;;;;;4408359;28;656104;-75
2022/02/17 14:26:11;;;;;;;1.93;0.93;;;9.30;54.20;;;;;;4384774;28;655408;-75
2022/02/17 14:28:59;;;;;;;2.90;1.00;;;9.20;55.60;;;;;;4407388;28;656563;-74
2022/02/17 14:31:46;;;;;;;5.17;1.27;;;9.20;55.60;;;;;;4387793;28;655608;-74
2022/02/17 14:35:09;;;;;;;7.80;1.40;;;9.30;55.70;;;;;;4392872;28;656069;-74
2022/02/17 14:37:45;;;;;;;5.23;1.40;;;9.30;56.10;;;;;;4354701;28;655639;-75
2022/02/17 14:40:37;;;;;;;8.27;1.50;;;9.30;56.40;;;;;;4375536;28;656701;-75
2022/02/17 14:43:28;;;;;;;12.40;1.40;;;9.20;56.80;;;;;;4385611;28;655740;-75
2022/02/17 14:46:16;;;;;;;4.73;1.70;;;9.10;57.70;;;;;;4365814;28;656981;-74